Time;durP1;ratioP1;P1;durP2;ratioP2;P2;SDS_P1;SDS_P2;PMS_P1;PMS_P2;Temp;Humidity;BMP_temperature;BMP_pressure;BME280_temperature;BME280_humidity;BME280_pressure;Samples;Min_cycle;Max_cycle;Signal;HPM_P1;HPM_P2
2021/07/12 00:00:49;;;;;;;0.60;0.60;;;17.70;99.90;;;;;;5046928;28;20201;-82
2021/07/12 00:03:15;;;;;;;0.80;0.70;;;17.50;99.90;;;;;;5050228;28;20215;-83
2021/07/12 00:05:41;;;;;;;1.60;1.00;;;17.30;99.90;;;;;;5046711;28;20209;-83
2021/07/12 00:08:08;;;;;;;0.73;0.70;;;17.10;99.90;;;;;;5054463;28;20185;-83
2021/07/12 00:10:34;;;;;;;0.60;0.50;;;16.90;99.90;;;;;;5046942;28;20652;-83
2021/07/12 00:13:00;;;;;;;0.67;0.67;;;16.80;99.90;;;;;;5050073;28;20196;-83
2021/07/12 00:15:28;;;;;;;1.73;0.97;;;16.80;99.90;;;;;;5073022;28;20295;-83
2021/07/12 00:17:54;;;;;;;1.40;0.47;;;16.70;99.90;;;;;;5068026;28;20204;-83
2021/07/12 00:20:21;;;;;;;0.70;0.57;;;16.70;99.90;;;;;;5084782;28;20205;-84
2021/07/12 00:22:48;;;;;;;0.33;0.33;;;16.70;99.90;;;;;;5068198;28;20203;-85
2021/07/12 00:25:14;;;;;;;1.90;0.60;;;16.60;99.90;;;;;;5036569;28;20204;-85
2021/07/12 00:27:40;;;;;;;1.53;0.80;;;16.60;99.90;;;;;;5044008;28;20560;-84
2021/07/12 00:30:11;;;;;;;0.70;0.70;;;16.50;99.90;;;;;;5070811;28;20180;-84
2021/07/12 00:32:37;;;;;;;0.47;0.47;;;16.60;99.90;;;;;;5071399;28;20590;-84
2021/07/12 00:35:08;;;;;;;0.70;0.70;;;16.70;99.90;;;;;;5045054;28;20226;-84
2021/07/12 00:37:34;;;;;;;0.70;0.63;;;16.80;99.90;;;;;;5055323;28;20212;-84
2021/07/12 00:39:59;;;;;;;1.03;0.93;;;16.80;99.90;;;;;;5073007;28;20327;-84
2021/07/12 00:42:25;;;;;;;0.67;0.63;;;16.70;99.90;;;;;;5055571;28;20195;-84
2021/07/12 00:44:51;;;;;;;0.53;0.50;;;16.70;99.90;;;;;;5053474;28;20215;-84
2021/07/12 00:47:16;;;;;;;0.73;0.73;;;16.50;99.90;;;;;;5067092;28;20244;-84
2021/07/12 00:49:42;;;;;;;0.60;0.60;;;16.50;99.90;;;;;;5068538;28;20239;-85
2021/07/12 00:52:08;;;;;;;0.70;0.70;;;16.50;99.90;;;;;;5042360;28;20191;-84
2021/07/12 00:54:35;;;;;;;0.90;0.90;;;16.60;99.90;;;;;;5039074;28;20251;-85
2021/07/12 00:57:04;;;;;;;0.50;0.50;;;16.70;99.90;;;;;;5044655;28;20197;-84
2021/07/12 00:59:30;;;;;;;0.67;0.67;;;16.60;99.90;;;;;;5043314;28;20212;-84
2021/07/12 01:01:56;;;;;;;0.30;0.30;;;16.60;99.90;;;;;;5046451;28;20215;-85
2021/07/12 01:04:22;;;;;;;0.43;0.43;;;16.50;99.90;;;;;;5061816;28;20657;-86
2021/07/12 01:06:47;;;;;;;0.73;0.73;;;16.50;99.90;;;;;;5046554;28;20188;-85
2021/07/12 01:09:13;;;;;;;0.83;0.83;;;16.40;99.90;;;;;;5068668;28;20236;-84
2021/07/12 01:12:05;;;;;;;1.20;1.10;;;16.40;99.90;;;;;;5050139;28;20180;-84
2021/07/12 01:14:40;;;;;;;0.80;0.50;;;16.40;99.90;;;;;;5040885;28;20245;-84
2021/07/12 01:17:16;;;;;;;1.17;0.50;;;16.40;99.90;;;;;;5043807;28;20220;-84
2021/07/12 01:20:35;;;;;;;0.73;0.50;;;16.40;99.90;;;;;;5035807;28;20184;-84
2021/07/12 01:23:25;;;;;;;2.00;0.57;;;16.40;99.90;;;;;;5051150;28;20184;-85
2021/07/12 01:26:03;;;;;;;0.87;0.60;;;16.40;99.90;;;;;;5048111;28;20660;-85
2021/07/12 01:28:47;;;;;;;1.27;1.03;;;16.40;99.90;;;;;;5051873;28;20984;-85
2021/07/12 01:31:34;;;;;;;0.87;0.80;;;16.40;99.90;;;;;;5047614;28;20188;-85
2021/07/12 01:34:09;;;;;;;0.93;0.93;;;16.40;99.90;;;;;;5047603;28;20651;-85
2021/07/12 01:36:59;;;;;;;0.80;0.80;;;16.40;99.90;;;;;;5032949;28;20198;-86
2021/07/12 01:39:37;;;;;;;1.00;0.60;;;16.40;99.90;;;;;;5037456;28;20280;-85
2021/07/12 01:42:12;;;;;;;0.83;0.80;;;16.30;99.90;;;;;;5042915;28;20179;-85
2021/07/12 01:44:58;;;;;;;0.83;0.73;;;16.30;99.90;;;;;;5045437;28;20210;-85
2021/07/12 01:47:51;;;;;;;1.00;0.80;;;16.30;99.90;;;;;;5066254;28;20266;-85
2021/07/12 01:50:33;;;;;;;1.33;0.67;;;16.30;99.90;;;;;;5053281;28;20184;-85
2021/07/12 01:53:11;;;;;;;0.80;0.80;;;16.30;99.90;;;;;;5063536;28;20222;-85
2021/07/12 01:55:58;;;;;;;0.40;0.40;;;16.30;99.90;;;;;;5053064;28;20203;-85
2021/07/12 01:58:57;;;;;;;0.47;0.47;;;16.30;99.90;;;;;;5070788;28;20208;-85
2021/07/12 02:01:27;;;;;;;1.30;0.70;;;16.40;99.90;;;;;;5044371;28;20180;-85
2021/07/12 02:03:54;;;;;;;1.00;0.37;;;16.40;99.90;;;;;;5064089;28;20206;-85
2021/07/12 02:06:21;;;;;;;0.27;0.27;;;16.40;99.90;;;;;;5069637;28;20242;-86
2021/07/12 02:08:50;;;;;;;0.60;0.50;;;16.50;99.90;;;;;;5042968;28;20184;-86
2021/07/12 02:11:16;;;;;;;1.17;0.77;;;16.40;99.90;;;;;;5066200;28;20191;-84
2021/07/12 02:13:45;;;;;;;0.70;0.70;;;16.50;99.90;;;;;;5062891;28;20206;-84
2021/07/12 02:16:11;;;;;;;0.67;0.67;;;16.60;99.90;;;;;;5049411;28;20192;-84
2021/07/12 02:18:37;;;;;;;1.03;0.50;;;16.70;99.90;;;;;;5038130;28;20291;-84
2021/07/12 02:21:04;;;;;;;1.87;0.93;;;16.70;99.90;;;;;;5071993;28;20241;-84
2021/07/12 02:23:31;;;;;;;0.60;0.47;;;16.70;99.90;;;;;;5057477;28;20205;-84
2021/07/12 02:25:58;;;;;;;1.33;0.77;;;16.70;99.90;;;;;;5041149;28;20266;-84
2021/07/12 02:28:25;;;;;;;1.03;0.50;;;16.70;99.90;;;;;;5037921;28;20184;-84
2021/07/12 02:30:53;;;;;;;0.23;0.23;;;16.70;99.90;;;;;;5045264;28;20193;-84
2021/07/12 02:33:21;;;;;;;2.03;0.63;;;16.60;99.90;;;;;;5039958;28;20701;-84
2021/07/12 02:35:48;;;;;;;0.73;0.73;;;16.50;99.90;;;;;;5059028;28;20172;-84
2021/07/12 02:38:15;;;;;;;0.50;0.50;;;16.40;99.90;;;;;;5048170;28;20281;-84
2021/07/12 02:40:43;;;;;;;0.50;0.23;;;16.30;99.90;;;;;;5048206;28;20667;-84
2021/07/12 02:43:09;;;;;;;0.83;0.60;;;16.20;99.90;;;;;;5051512;28;20557;-84
2021/07/12 02:45:37;;;;;;;1.50;0.43;;;16.30;99.90;;;;;;5049471;28;20718;-84
2021/07/12 02:48:03;;;;;;;0.60;0.60;;;16.40;99.90;;;;;;5068475;28;20189;-84
2021/07/12 02:50:28;;;;;;;1.23;0.73;;;16.50;99.90;;;;;;5064496;28;20241;-84
2021/07/12 02:53:06;;;;;;;0.50;0.50;;;16.50;99.90;;;;;;5048211;28;20556;-83
2021/07/12 02:55:32;;;;;;;1.60;0.87;;;16.60;99.90;;;;;;5040824;28;20180;-83
2021/07/12 02:57:58;;;;;;;0.30;0.30;;;16.70;99.90;;;;;;5052574;28;20211;-83
2021/07/12 03:00:24;;;;;;;0.20;0.20;;;16.70;99.90;;;;;;5052946;28;20305;-83
2021/07/12 03:02:50;;;;;;;0.40;0.40;;;16.80;99.90;;;;;;5069100;28;20272;-83
2021/07/12 03:05:15;;;;;;;0.37;0.30;;;16.80;99.90;;;;;;5058949;28;20201;-82
2021/07/12 03:08:06;;;;;;;0.70;0.70;;;16.90;99.90;;;;;;5053208;28;20194;-82
2021/07/12 03:10:37;;;;;;;0.80;0.80;;;17.00;99.90;;;;;;5038629;28;20193;-82
2021/07/12 03:13:05;;;;;;;0.47;0.47;;;17.00;99.90;;;;;;5051759;28;20331;-83
2021/07/12 03:15:32;;;;;;;0.50;0.50;;;17.00;99.90;;;;;;5056262;28;20188;-83
2021/07/12 03:18:03;;;;;;;1.50;0.93;;;17.10;99.90;;;;;;5054331;28;20235;-82
2021/07/12 03:20:31;;;;;;;0.57;0.57;;;17.20;99.90;;;;;;5061197;28;20181;-83
2021/07/12 03:22:59;;;;;;;1.10;0.50;;;17.20;99.90;;;;;;5051086;28;20523;-83
2021/07/12 03:25:33;;;;;;;0.90;0.90;;;17.30;99.90;;;;;;5062296;28;20200;-83
2021/07/12 03:28:00;;;;;;;1.00;0.70;;;17.30;99.90;;;;;;5063310;28;20272;-83
2021/07/12 03:30:28;;;;;;;1.10;0.60;;;17.30;99.90;;;;;;5050934;28;20602;-83
2021/07/12 03:32:55;;;;;;;0.53;0.53;;;17.50;99.90;;;;;;5048809;28;20185;-82
2021/07/12 03:35:23;;;;;;;0.83;0.83;;;17.50;99.90;;;;;;5062804;28;20223;-83
2021/07/12 03:37:49;;;;;;;0.50;0.50;;;17.40;99.90;;;;;;5036449;28;20585;-82
2021/07/12 03:40:17;;;;;;;0.50;0.50;;;17.50;99.90;;;;;;5066620;28;20189;-83
2021/07/12 03:42:43;;;;;;;0.73;0.53;;;17.40;99.90;;;;;;5062917;28;20198;-83
2021/07/12 03:45:09;;;;;;;0.50;0.50;;;17.40;99.90;;;;;;5073415;28;20295;-83
2021/07/12 03:47:37;;;;;;;0.90;0.90;;;17.40;99.90;;;;;;5042189;28;20283;-83
2021/07/12 03:50:03;;;;;;;0.60;0.60;;;17.70;99.90;;;;;;5071411;28;20598;-83
2021/07/12 03:52:32;;;;;;;1.33;0.40;;;18.50;99.90;;;;;;5042345;28;20185;-83
2021/07/12 03:54:57;;;;;;;1.23;0.70;;;19.20;99.90;;;;;;5047050;28;20200;-83
2021/07/12 03:57:23;;;;;;;0.87;0.67;;;19.80;99.90;;;;;;5053370;28;20216;-83
2021/07/12 03:59:49;;;;;;;1.40;0.93;;;20.20;99.90;;;;;;5065677;28;20208;-83
2021/07/12 04:02:14;;;;;;;0.30;0.30;;;19.80;99.90;;;;;;5042218;28;20200;-83
2021/07/12 04:04:40;;;;;;;0.60;0.60;;;20.50;99.90;;;;;;5046041;28;20197;-84
2021/07/12 04:07:05;;;;;;;1.03;0.50;;;21.00;99.90;;;;;;5040083;28;20182;-83
2021/07/12 04:09:31;;;;;;;0.70;0.70;;;21.20;99.90;;;;;;5041143;28;20196;-83
2021/07/12 04:11:57;;;;;;;0.50;0.50;;;21.30;99.90;;;;;;5048088;28;20176;-83
2021/07/12 04:14:23;;;;;;;1.37;0.67;;;21.40;99.90;;;;;;5064217;28;20537;-83
2021/07/12 04:16:49;;;;;;;0.60;0.60;;;22.10;99.90;;;;;;5062379;28;20185;-83
2021/07/12 04:19:14;;;;;;;0.37;0.37;;;22.30;99.90;;;;;;5047109;28;20204;-83
2021/07/12 04:21:40;;;;;;;1.07;0.70;;;22.70;99.90;;;;;;5048209;28;20675;-83
2021/07/12 04:24:05;;;;;;;0.50;0.50;;;23.30;99.90;;;;;;5059001;28;20206;-83
2021/07/12 04:26:31;;;;;;;0.50;0.50;;;23.90;99.90;;;;;;5046870;28;20185;-83
2021/07/12 04:28:57;;;;;;;0.53;0.50;;;23.70;99.90;;;;;;5050481;28;20213;-83
2021/07/12 04:31:22;;;;;;;0.50;0.50;;;23.10;99.90;;;;;;5048503;28;20188;-83
2021/07/12 04:33:48;;;;;;;0.87;0.67;;;22.50;99.90;;;;;;5050010;28;20205;-84
2021/07/12 04:36:13;;;;;;;0.87;0.80;;;22.10;99.90;;;;;;5070625;28;20192;-83
2021/07/12 04:38:39;;;;;;;0.50;0.50;;;21.60;99.90;;;;;;5072486;28;20219;-83
2021/07/12 04:41:05;;;;;;;0.20;0.20;;;21.20;99.90;;;;;;5065352;28;20254;-83
2021/07/12 04:43:31;;;;;;;1.70;0.40;;;21.10;99.90;;;;;;5041267;28;20210;-84
2021/07/12 04:45:57;;;;;;;0.97;0.77;;;21.00;99.90;;;;;;5049726;28;20242;-84
2021/07/12 04:48:23;;;;;;;0.63;0.63;;;21.00;99.90;;;;;;5054247;28;20189;-83
2021/07/12 04:50:48;;;;;;;0.47;0.40;;;20.90;99.90;;;;;;5052706;28;20189;-83
2021/07/12 04:53:14;;;;;;;0.33;0.33;;;20.80;99.90;;;;;;5050417;28;20715;-83
2021/07/12 04:55:39;;;;;;;0.60;0.60;;;20.70;99.90;;;;;;5048632;28;20185;-82
2021/07/12 04:58:05;;;;;;;0.80;0.70;;;20.60;99.90;;;;;;5038190;28;20212;-81
2021/07/12 05:00:32;;;;;;;0.90;0.87;;;20.40;99.90;;;;;;5047474;28;20276;-81
2021/07/12 05:02:58;;;;;;;1.33;0.90;;;19.90;99.90;;;;;;5041590;28;20184;-82
2021/07/12 05:05:24;;;;;;;0.67;0.67;;;19.40;99.90;;;;;;5057226;28;20197;-82
2021/07/12 05:07:49;;;;;;;2.73;0.60;;;19.20;99.90;;;;;;5062745;28;20243;-82
2021/07/12 05:10:15;;;;;;;0.40;0.37;;;19.00;99.90;;;;;;5050587;28;20269;-82
2021/07/12 05:12:40;;;;;;;0.63;0.63;;;18.80;99.90;;;;;;5055520;28;20231;-84
2021/07/12 05:15:08;;;;;;;0.50;0.50;;;19.00;99.90;;;;;;5053375;28;20206;-83
2021/07/12 05:17:35;;;;;;;0.40;0.40;;;19.20;99.90;;;;;;5066587;28;20209;-84
2021/07/12 05:20:01;;;;;;;0.47;0.37;;;19.40;99.90;;;;;;5064623;28;20185;-83
2021/07/12 05:22:27;;;;;;;0.87;0.87;;;19.70;99.90;;;;;;5051606;28;20192;-83
2021/07/12 05:24:53;;;;;;;0.33;0.33;;;19.80;99.90;;;;;;5053885;28;20303;-84
2021/07/12 05:27:19;;;;;;;1.37;0.53;;;20.10;99.90;;;;;;5047110;28;20273;-83
2021/07/12 05:29:45;;;;;;;0.50;0.50;;;19.70;99.90;;;;;;5061800;28;20561;-84
2021/07/12 05:32:10;;;;;;;0.70;0.70;;;19.90;99.90;;;;;;5048438;28;20189;-83
2021/07/12 05:34:36;;;;;;;1.23;1.07;;;20.30;99.90;;;;;;5073200;28;20208;-84
2021/07/12 05:37:02;;;;;;;0.77;0.77;;;19.90;99.90;;;;;;5059313;28;20192;-84
2021/07/12 05:39:27;;;;;;;0.57;0.57;;;20.00;99.90;;;;;;5046330;28;20187;-84
2021/07/12 05:41:53;;;;;;;1.23;0.53;;;19.70;99.90;;;;;;5049181;28;20177;-82
2021/07/12 05:44:19;;;;;;;1.47;1.00;;;19.80;99.90;;;;;;5066667;28;20205;-84
2021/07/12 05:46:44;;;;;;;0.60;0.60;;;20.00;99.90;;;;;;5065314;28;20178;-84
2021/07/12 05:49:10;;;;;;;0.63;0.63;;;20.30;99.90;;;;;;5057747;28;20663;-84
2021/07/12 05:51:36;;;;;;;0.97;0.80;;;20.10;99.90;;;;;;5040298;28;20186;-83
2021/07/12 05:54:02;;;;;;;0.40;0.40;;;20.10;99.90;;;;;;5042631;28;20206;-84
2021/07/12 05:56:27;;;;;;;0.83;0.83;;;20.50;99.90;;;;;;5051112;28;20204;-84
2021/07/12 05:58:53;;;;;;;0.40;0.40;;;20.40;99.90;;;;;;5058542;28;20570;-84
2021/07/12 06:01:19;;;;;;;0.77;0.77;;;20.50;99.90;;;;;;5049475;28;20177;-83
2021/07/12 06:03:44;;;;;;;0.20;0.20;;;20.50;99.90;;;;;;5063819;28;20196;-83
2021/07/12 06:06:12;;;;;;;0.83;0.83;;;20.80;99.90;;;;;;5072161;28;20188;-84
2021/07/12 06:08:37;;;;;;;2.50;0.33;;;20.60;99.90;;;;;;5053261;28;20185;-83
2021/07/12 06:11:04;;;;;;;0.40;0.40;;;20.80;99.90;;;;;;5058623;28;20247;-84
2021/07/12 06:13:30;;;;;;;0.53;0.53;;;20.70;99.90;;;;;;5040874;28;20876;-84
2021/07/12 06:15:55;;;;;;;0.50;0.50;;;21.20;99.90;;;;;;5068417;28;20177;-84
2021/07/12 06:18:21;;;;;;;0.50;0.30;;;21.70;99.90;;;;;;5044819;28;20231;-83
2021/07/12 06:20:46;;;;;;;0.53;0.50;;;22.00;99.90;;;;;;5051682;28;20173;-84
2021/07/12 06:23:12;;;;;;;0.70;0.70;;;21.50;99.90;;;;;;5045092;28;20533;-83
2021/07/12 06:25:38;;;;;;;0.40;0.40;;;21.80;99.90;;;;;;5049807;28;20283;-84
2021/07/12 06:28:04;;;;;;;0.33;0.33;;;22.00;99.90;;;;;;5050836;28;20185;-83
2021/07/12 06:30:31;;;;;;;1.93;0.43;;;22.10;99.90;;;;;;5048273;28;20230;-83
2021/07/12 06:32:56;;;;;;;0.57;0.57;;;22.20;99.90;;;;;;5061860;28;20188;-84
2021/07/12 06:35:22;;;;;;;0.47;0.47;;;21.80;99.90;;;;;;5052713;28;20196;-84
2021/07/12 06:37:48;;;;;;;0.80;0.80;;;22.00;99.90;;;;;;5056512;28;20208;-85
2021/07/12 06:40:14;;;;;;;0.60;0.60;;;21.80;99.90;;;;;;5053783;28;20177;-84
2021/07/12 06:42:40;;;;;;;0.77;0.50;;;21.20;99.90;;;;;;5048240;28;20176;-84
2021/07/12 06:45:06;;;;;;;0.67;0.67;;;21.50;99.90;;;;;;5056679;28;20222;-84
2021/07/12 06:47:32;;;;;;;0.30;0.30;;;21.40;99.90;;;;;;5051209;28;20209;-84
2021/07/12 06:49:58;;;;;;;0.20;0.20;;;21.30;99.90;;;;;;5073324;28;20219;-84
2021/07/12 06:52:24;;;;;;;0.70;0.70;;;21.50;99.90;;;;;;5056147;28;20653;-84
2021/07/12 06:54:50;;;;;;;0.87;0.70;;;21.70;99.90;;;;;;5053154;28;20205;-84
2021/07/12 06:57:16;;;;;;;0.40;0.40;;;22.00;99.90;;;;;;5056954;28;20208;-84
2021/07/12 06:59:41;;;;;;;0.50;0.50;;;22.30;99.90;;;;;;5060588;28;20608;-84
2021/07/12 07:02:07;;;;;;;0.20;0.20;;;22.50;99.90;;;;;;5051975;28;20177;-84
2021/07/12 07:04:33;;;;;;;0.30;0.30;;;22.50;99.90;;;;;;5055907;28;20205;-84
2021/07/12 07:06:59;;;;;;;0.63;0.53;;;22.30;99.90;;;;;;5050172;28;20489;-84
2021/07/12 07:09:25;;;;;;;0.37;0.37;;;22.40;99.90;;;;;;5074180;28;20197;-83
2021/07/12 07:11:51;;;;;;;0.83;0.60;;;22.40;99.90;;;;;;5076876;28;20180;-83
2021/07/12 07:14:17;;;;;;;0.30;0.30;;;22.70;99.90;;;;;;5098761;28;20195;-82
2021/07/12 07:16:43;;;;;;;1.50;0.63;;;22.90;99.90;;;;;;5071734;28;20189;-84
2021/07/12 07:19:10;;;;;;;0.63;0.63;;;22.50;99.90;;;;;;5059991;28;20211;-84
2021/07/12 07:21:35;;;;;;;0.60;0.60;;;22.20;99.90;;;;;;5052362;28;20648;-84
2021/07/12 07:24:01;;;;;;;2.93;1.07;;;22.30;99.90;;;;;;5051293;28;20263;-84
2021/07/12 07:26:27;;;;;;;0.50;0.50;;;22.00;99.90;;;;;;5050636;28;20280;-85
2021/07/12 07:28:55;;;;;;;0.50;0.50;;;21.80;99.90;;;;;;5051837;28;20192;-85
2021/07/12 07:31:21;;;;;;;0.67;0.40;;;22.10;99.90;;;;;;5064761;28;20272;-85
2021/07/12 07:33:47;;;;;;;0.50;0.47;;;22.30;99.90;;;;;;5061847;28;20204;-84
2021/07/12 07:36:13;;;;;;;0.40;0.40;;;22.70;99.90;;;;;;5053958;28;20714;-85
2021/07/12 07:38:38;;;;;;;6.80;0.83;;;23.00;99.90;;;;;;5050440;28;20231;-84
2021/07/12 07:41:04;;;;;;;1.90;0.63;;;23.10;99.90;;;;;;5065383;28;20200;-84
2021/07/12 07:43:30;;;;;;;0.60;0.60;;;23.20;99.90;;;;;;5052608;28;20211;-84
2021/07/12 07:45:55;;;;;;;1.37;0.63;;;23.00;99.90;;;;;;5045542;28;20527;-84
2021/07/12 07:48:21;;;;;;;0.40;0.40;;;23.00;99.90;;;;;;5049486;28;20195;-84
2021/07/12 07:50:47;;;;;;;0.70;0.60;;;22.80;99.90;;;;;;5051783;28;21485;-84
2021/07/12 07:53:12;;;;;;;0.47;0.47;;;22.60;99.90;;;;;;5057940;28;20185;-84
2021/07/12 07:55:40;;;;;;;0.67;0.67;;;22.90;99.90;;;;;;5071410;28;20544;-84
2021/07/12 07:58:05;;;;;;;0.97;0.40;;;22.90;99.90;;;;;;5040762;28;20258;-84
2021/07/12 08:00:31;;;;;;;0.50;0.50;;;22.50;99.90;;;;;;5050829;28;20205;-85
2021/07/12 08:02:57;;;;;;;1.57;1.47;;;22.80;99.90;;;;;;5044427;28;20658;-84
2021/07/12 08:05:23;;;;;;;0.50;0.40;;;22.80;99.90;;;;;;5045600;28;20286;-84
2021/07/12 08:07:49;;;;;;;0.50;0.50;;;22.80;99.90;;;;;;5042604;28;20186;-85
2021/07/12 08:10:17;;;;;;;0.20;0.20;;;22.50;99.90;;;;;;5057172;28;20265;-84
2021/07/12 08:12:44;;;;;;;0.60;0.60;;;22.60;99.90;;;;;;5067666;28;20239;-83
2021/07/12 08:15:11;;;;;;;1.47;0.97;;;22.60;99.90;;;;;;5071385;28;20686;-84
2021/07/12 08:17:38;;;;;;;0.70;0.70;;;23.30;99.90;;;;;;5046602;28;20216;-83
2021/07/12 08:20:05;;;;;;;0.90;0.90;;;23.10;99.90;;;;;;5069354;28;20725;-83
2021/07/12 08:22:33;;;;;;;0.63;0.63;;;23.00;99.90;;;;;;5048641;28;20203;-84
2021/07/12 08:25:00;;;;;;;0.30;0.30;;;23.30;99.90;;;;;;5059553;28;20676;-83
2021/07/12 08:27:25;;;;;;;0.43;0.43;;;23.70;99.90;;;;;;5071698;28;20183;-85
2021/07/12 08:29:51;;;;;;;0.53;0.53;;;23.30;99.90;;;;;;5054443;28;20185;-84
2021/07/12 08:32:17;;;;;;;0.40;0.40;;;23.10;99.90;;;;;;5052185;28;20664;-85
2021/07/12 08:34:43;;;;;;;0.63;0.63;;;23.10;99.90;;;;;;5035452;28;20225;-84
2021/07/12 08:37:12;;;;;;;0.63;0.47;;;23.40;99.90;;;;;;5066873;28;20211;-84
2021/07/12 08:39:37;;;;;;;0.40;0.40;;;23.20;99.90;;;;;;5067950;28;20185;-84
2021/07/12 08:42:04;;;;;;;0.30;0.30;;;22.90;99.90;;;;;;5056094;28;20181;-84
2021/07/12 08:44:30;;;;;;;0.40;0.40;;;23.40;99.90;;;;;;5067914;28;20288;-83
2021/07/12 08:46:56;;;;;;;0.60;0.60;;;23.80;99.90;;;;;;5063156;28;20642;-84
2021/07/12 08:49:22;;;;;;;0.40;0.40;;;23.40;99.90;;;;;;5055286;28;20189;-83
2021/07/12 08:51:49;;;;;;;0.43;0.33;;;23.50;99.90;;;;;;5071064;28;20203;-83
2021/07/12 08:54:15;;;;;;;0.73;0.53;;;23.70;99.90;;;;;;5052359;28;20213;-83
2021/07/12 08:56:41;;;;;;;1.47;0.60;;;24.00;99.90;;;;;;5066314;28;20196;-85
2021/07/12 08:59:29;;;;;;;0.37;0.37;;;23.90;99.90;;;;;;5046303;28;20217;-84
2021/07/12 09:02:06;;;;;;;0.57;0.57;;;24.30;99.90;;;;;;5056095;28;20671;-84
2021/07/12 09:04:33;;;;;;;1.10;1.00;;;23.70;99.90;;;;;;5050005;28;20219;-84
2021/07/12 09:07:23;;;;;;;0.93;0.87;;;23.50;99.90;;;;;;5067991;28;20190;-83
2021/07/12 09:09:58;;;;;;;1.50;0.70;;;23.40;99.90;;;;;;5042739;28;20198;-84
2021/07/12 09:12:47;;;;;;;0.83;0.60;;;23.90;99.90;;;;;;5053319;28;20184;-84
2021/07/12 09:15:23;;;;;;;0.30;0.30;;;24.30;99.90;;;;;;5055394;28;20205;-88
2021/07/12 09:17:51;;;;;;;0.87;0.63;;;24.40;99.90;;;;;;5050189;28;20207;-84
2021/07/12 09:20:23;;;;;;;0.60;0.60;;;24.00;99.90;;;;;;5043904;28;20186;-84
2021/07/12 09:22:48;;;;;;;2.63;1.17;;;24.00;99.90;;;;;;5053494;28;20178;-85
2021/07/12 09:25:14;;;;;;;0.83;0.83;;;24.10;99.90;;;;;;5049727;28;20274;-84
2021/07/12 09:27:41;;;;;;;0.40;0.40;;;24.00;99.90;;;;;;5062808;28;20188;-85
2021/07/12 09:30:11;;;;;;;0.47;0.40;;;23.90;99.90;;;;;;5036604;28;20197;-85
2021/07/12 09:32:39;;;;;;;1.10;0.60;;;24.30;99.90;;;;;;5056612;28;20182;-85
2021/07/12 09:35:13;;;;;;;0.70;0.50;;;24.60;99.90;;;;;;5045104;28;20248;-84
2021/07/12 09:37:41;;;;;;;0.40;0.30;;;24.30;99.90;;;;;;5051140;28;20215;-85
2021/07/12 09:40:12;;;;;;;0.90;0.67;;;24.80;99.90;;;;;;5049849;28;20696;-85
2021/07/12 09:42:49;;;;;;;0.60;0.60;;;24.40;99.90;;;;;;5069782;28;20188;-85
2021/07/12 09:45:18;;;;;;;2.00;0.50;;;24.10;99.90;;;;;;5044737;28;20228;-85
2021/07/12 09:47:46;;;;;;;0.60;0.50;;;23.90;99.90;;;;;;5071335;28;20198;-86
2021/07/12 09:50:17;;;;;;;0.80;0.80;;;24.00;99.90;;;;;;5052599;28;21564;-84
2021/07/12 09:52:48;;;;;;;0.30;0.30;;;23.70;99.90;;;;;;5052675;28;20198;-85
2021/07/12 09:55:23;;;;;;;1.60;0.50;;;23.60;99.90;;;;;;5045187;28;20635;-84
2021/07/12 09:58:17;;;;;;;0.37;0.37;;;23.90;99.90;;;;;;5065613;28;20211;-84
2021/07/12 10:00:49;;;;;;;0.40;0.40;;;23.70;99.90;;;;;;5042456;28;20252;-84
2021/07/12 10:03:21;;;;;;;1.43;1.03;;;23.70;99.90;;;;;;5058311;28;20217;-84
2021/07/12 10:05:48;;;;;;;0.67;0.50;;;23.40;99.90;;;;;;5047609;28;20234;-83
2021/07/12 10:08:14;;;;;;;2.10;0.60;;;23.30;99.90;;;;;;5051821;28;20258;-84
2021/07/12 10:10:40;;;;;;;0.60;0.60;;;23.50;99.90;;;;;;5050794;28;20189;-84
2021/07/12 10:13:06;;;;;;;0.50;0.50;;;23.80;99.90;;;;;;5045808;28;20217;-84
2021/07/12 10:15:32;;;;;;;0.50;0.40;;;23.60;99.90;;;;;;5045280;28;20221;-84
2021/07/12 10:17:58;;;;;;;0.50;0.50;;;23.40;99.90;;;;;;5052057;28;20259;-84
2021/07/12 10:20:25;;;;;;;0.63;0.63;;;23.60;99.90;;;;;;5043824;28;20181;-84
2021/07/12 10:22:51;;;;;;;0.60;0.60;;;23.90;99.90;;;;;;5050190;28;20730;-85
2021/07/12 10:25:20;;;;;;;0.40;0.40;;;23.80;99.90;;;;;;5053272;28;20205;-84
2021/07/12 10:27:58;;;;;;;1.03;0.57;;;24.30;99.90;;;;;;5067378;28;20189;-84
2021/07/12 10:30:32;;;;;;;0.57;0.57;;;24.90;99.90;;;;;;5063844;28;20180;-84
2021/07/12 10:33:09;;;;;;;0.70;0.60;;;24.90;99.90;;;;;;5040897;28;20262;-84
2021/07/12 10:35:49;;;;;;;0.40;0.40;;;25.00;99.90;;;;;;5046676;28;20177;-84
2021/07/12 10:38:26;;;;;;;0.80;0.80;;;25.00;99.90;;;;;;5044103;28;20853;-84
2021/07/12 10:40:58;;;;;;;0.57;0.57;;;24.70;99.90;;;;;;5041559;28;20238;-83
2021/07/12 10:43:42;;;;;;;0.57;0.50;;;24.60;99.90;;;;;;5045713;28;20654;-84
2021/07/12 10:46:23;;;;;;;0.53;0.53;;;24.70;99.90;;;;;;5066242;28;20208;-84
2021/07/12 10:48:49;;;;;;;1.40;0.70;;;24.50;99.90;;;;;;5049241;28;20191;-85
2021/07/12 10:51:15;;;;;;;0.40;0.40;;;24.30;99.90;;;;;;5064718;28;20182;-85
2021/07/12 10:53:41;;;;;;;0.77;0.70;;;24.20;99.90;;;;;;5046069;28;20249;-84
2021/07/12 10:56:09;;;;;;;0.40;0.40;;;24.30;99.90;;;;;;5046263;28;20189;-83
2021/07/12 10:58:37;;;;;;;0.53;0.50;;;24.60;99.90;;;;;;5063465;28;20205;-84
2021/07/12 11:01:05;;;;;;;0.63;0.63;;;24.60;99.90;;;;;;5048525;28;20560;-84
2021/07/12 11:03:38;;;;;;;1.07;0.60;;;24.30;99.90;;;;;;5049808;28;20322;-84
2021/07/12 11:06:08;;;;;;;1.23;1.13;;;24.90;99.90;;;;;;5066037;28;20182;-84
2021/07/12 11:08:46;;;;;;;0.53;0.53;;;25.30;99.90;;;;;;5049369;28;20185;-84
2021/07/12 11:11:21;;;;;;;0.77;0.53;;;24.80;99.90;;;;;;5059461;28;20189;-84
2021/07/12 11:14:05;;;;;;;0.90;0.50;;;25.00;99.90;;;;;;5059369;28;20299;-83
2021/07/12 11:16:38;;;;;;;0.40;0.40;;;25.90;99.90;;;;;;5067262;28;20188;-84
2021/07/12 11:19:31;;;;;;;1.20;0.40;;;26.40;99.90;;;;;;5064216;28;21095;-84
2021/07/12 11:22:20;;;;;;;0.70;0.70;;;26.50;99.90;;;;;;5067763;28;20177;-84
2021/07/12 11:25:04;;;;;;;0.50;0.50;;;26.40;99.90;;;;;;5056686;28;20193;-84
2021/07/12 11:27:40;;;;;;;1.90;0.60;;;26.50;99.90;;;;;;5074486;28;20177;-84
2021/07/12 11:30:29;;;;;;;1.00;1.00;;;26.80;99.90;;;;;;5055300;28;20184;-84
2021/07/12 11:32:55;;;;;;;0.40;0.40;;;26.20;99.90;;;;;;5074191;28;20169;-83
2021/07/12 11:35:21;;;;;;;0.30;0.30;;;26.60;99.90;;;;;;5057792;28;20294;-82
2021/07/12 11:37:47;;;;;;;0.40;0.40;;;26.60;99.90;;;;;;5068057;28;20773;-82
2021/07/12 11:40:13;;;;;;;0.73;0.63;;;27.20;99.90;;;;;;5044799;28;20708;-82
2021/07/12 11:42:40;;;;;;;0.40;0.40;;;27.60;99.90;;;;;;5043679;28;20186;-83
2021/07/12 11:45:15;;;;;;;0.63;0.60;;;28.00;99.90;;;;;;5049200;28;20213;-83
2021/07/12 11:47:42;;;;;;;0.50;0.40;;;27.00;99.90;;;;;;5072474;28;20176;-83
2021/07/12 11:50:10;;;;;;;0.23;0.23;;;27.40;99.90;;;;;;5072290;28;20731;-83
2021/07/12 11:52:37;;;;;;;0.60;0.60;;;27.80;99.90;;;;;;5051191;28;20277;-83
2021/07/12 11:55:09;;;;;;;0.70;0.63;;;27.00;99.90;;;;;;5054205;28;20208;-84
2021/07/12 11:57:36;;;;;;;0.40;0.40;;;27.50;99.90;;;;;;5066284;28;20209;-83
2021/07/12 12:00:05;;;;;;;0.73;0.60;;;27.90;99.90;;;;;;5068262;28;20182;-83
2021/07/12 12:02:31;;;;;;;0.87;0.50;;;28.20;99.90;;;;;;5051707;28;20186;-83
2021/07/12 12:04:59;;;;;;;0.93;0.50;;;28.00;99.90;;;;;;5074623;28;20201;-83
2021/07/12 12:07:30;;;;;;;0.50;0.50;;;28.00;99.90;;;;;;5050486;28;20258;-83
2021/07/12 12:10:04;;;;;;;0.57;0.47;;;28.10;99.90;;;;;;5050466;28;20177;-83
2021/07/12 12:12:39;;;;;;;0.30;0.30;;;28.60;99.90;;;;;;5058545;28;20176;-84
2021/07/12 12:15:10;;;;;;;0.50;0.50;;;27.80;99.90;;;;;;5063961;28;20204;-83
2021/07/12 12:17:38;;;;;;;0.63;0.60;;;27.70;99.90;;;;;;5071645;28;20591;-83
2021/07/12 12:20:09;;;;;;;1.20;0.60;;;28.10;99.90;;;;;;5057391;28;20192;-83
2021/07/12 12:22:34;;;;;;;0.50;0.50;;;27.50;99.90;;;;;;5049351;28;20181;-83
2021/07/12 12:25:03;;;;;;;0.30;0.30;;;27.40;99.90;;;;;;5071578;28;20269;-83
2021/07/12 12:27:30;;;;;;;0.40;0.40;;;27.20;99.90;;;;;;5042987;28;20642;-83
2021/07/12 12:29:55;;;;;;;0.40;0.40;;;27.40;99.90;;;;;;5073314;28;20207;-83
2021/07/12 12:32:29;;;;;;;0.60;0.33;;;27.50;99.90;;;;;;5056780;28;20196;-83
2021/07/12 12:34:55;;;;;;;0.80;0.67;;;27.20;99.90;;;;;;5074058;28;20212;-83
2021/07/12 12:37:20;;;;;;;0.57;0.57;;;27.10;99.90;;;;;;5050191;28;20182;-83
2021/07/12 12:39:46;;;;;;;0.27;0.27;;;27.40;99.90;;;;;;5037293;28;20178;-83
2021/07/12 12:42:25;;;;;;;0.30;0.30;;;28.00;99.90;;;;;;5042753;28;20200;-82
2021/07/12 12:44:54;;;;;;;0.50;0.50;;;28.40;99.90;;;;;;5061149;28;20204;-82
2021/07/12 12:47:26;;;;;;;0.30;0.30;;;27.20;99.90;;;;;;5058831;28;20177;-83
2021/07/12 12:49:52;;;;;;;0.40;0.40;;;26.70;99.90;;;;;;5042695;28;20239;-83
2021/07/12 12:52:17;;;;;;;0.40;0.33;;;26.80;99.90;;;;;;5066518;28;20182;-83
2021/07/12 12:54:46;;;;;;;0.20;0.20;;;26.70;99.90;;;;;;5073130;28;20213;-83
2021/07/12 12:57:12;;;;;;;0.93;0.50;;;27.20;99.90;;;;;;5086953;28;20205;-83